sensor_id;sensor_type;location;lat;lon;timestamp;temperature;humidity
10459;DHT22;5277;48.722;8.736;2023-02-01T00:00:01;4.80;99.90
10459;DHT22;5277;48.722;8.736;2023-02-01T00:02:26;4.80;99.90
10459;DHT22;5277;48.722;8.736;2023-02-01T00:04:52;4.90;99.90
10459;DHT22;5277;48.722;8.736;2023-02-01T00:07:17;4.80;99.90
10459;DHT22;5277;48.722;8.736;2023-02-01T00:09:43;4.90;99.90
10459;DHT22;5277;48.722;8.736;2023-02-01T00:12:08;4.90;99.90
10459;DHT22;5277;48.722;8.736;2023-02-01T00:14:34;5.00;99.90
10459;DHT22;5277;48.722;8.736;2023-02-01T00:17:04;5.00;99.90
10459;DHT22;5277;48.722;8.736;2023-02-01T00:19:31;5.00;99.90
10459;DHT22;5277;48.722;8.736;2023-02-01T00:21:57;5.00;99.90
10459;DHT22;5277;48.722;8.736;2023-02-01T00:24:23;5.00;99.90
10459;DHT22;5277;48.722;8.736;2023-02-01T00:26:48;5.00;99.90
10459;DHT22;5277;48.722;8.736;2023-02-01T00:29:16;5.00;99.90
10459;DHT22;5277;48.722;8.736;2023-02-01T00:31:43;5.00;99.90
10459;DHT22;5277;48.722;8.736;2023-02-01T00:34:14;5.00;99.90
10459;DHT22;5277;48.722;8.736;2023-02-01T00:36:41;5.00;99.90
10459;DHT22;5277;48.722;8.736;2023-02-01T00:39:06;4.90;99.90
10459;DHT22;5277;48.722;8.736;2023-02-01T00:41:32;4.90;99.90
10459;DHT22;5277;48.722;8.736;2023-02-01T00:43:58;4.80;99.90
10459;DHT22;5277;48.722;8.736;2023-02-01T00:46:24;4.70;99.90
10459;DHT22;5277;48.722;8.736;2023-02-01T00:48:49;4.70;99.90
10459;DHT22;5277;48.722;8.736;2023-02-01T00:51:19;4.70;99.90
10459;DHT22;5277;48.722;8.736;2023-02-01T00:53:45;4.70;99.90
10459;DHT22;5277;48.722;8.736;2023-02-01T00:56:11;4.70;99.90
10459;DHT22;5277;48.722;8.736;2023-02-01T00:58:37;4.70;99.90
10459;DHT22;5277;48.722;8.736;2023-02-01T01:01:29;4.80;99.90
10459;DHT22;5277;48.722;8.736;2023-02-01T01:03:58;4.80;99.90
10459;DHT22;5277;48.722;8.736;2023-02-01T01:06:27;4.80;99.90
10459;DHT22;5277;48.722;8.736;2023-02-01T01:08:55;4.80;99.90
10459;DHT22;5277;48.722;8.736;2023-02-01T01:11:24;4.90;99.90
10459;DHT22;5277;48.722;8.736;2023-02-01T01:13:51;4.90;99.90
10459;DHT22;5277;48.722;8.736;2023-02-01T01:16:18;4.90;99.90
10459;DHT22;5277;48.722;8.736;2023-02-01T01:18:44;4.90;99.90
10459;DHT22;5277;48.722;8.736;2023-02-01T01:21:12;4.80;99.90
10459;DHT22;5277;48.722;8.736;2023-02-01T01:23:38;4.80;99.90
10459;DHT22;5277;48.722;8.736;2023-02-01T01:26:12;4.80;99.90
10459;DHT22;5277;48.722;8.736;2023-02-01T01:28:39;4.80;99.90
10459;DHT22;5277;48.722;8.736;2023-02-01T01:31:08;4.80;99.90
10459;DHT22;5277;48.722;8.736;2023-02-01T01:33:34;4.80;99.90
10459;DHT22;5277;48.722;8.736;2023-02-01T01:35:59;4.80;99.90
10459;DHT22;5277;48.722;8.736;2023-02-01T01:38:25;4.90;99.90
10459;DHT22;5277;48.722;8.736;2023-02-01T01:40:50;4.80;99.90
10459;DHT22;5277;48.722;8.736;2023-02-01T01:43:18;4.80;99.90
10459;DHT22;5277;48.722;8.736;2023-02-01T01:45:45;4.90;99.90
10459;DHT22;5277;48.722;8.736;2023-02-01T01:48:27;4.90;99.90
10459;DHT22;5277;48.722;8.736;2023-02-01T01:51:02;4.90;99.90
10459;DHT22;5277;48.722;8.736;2023-02-01T01:53:34;4.80;99.90
10459;DHT22;5277;48.722;8.736;2023-02-01T01:56:01;4.90;99.90
10459;DHT22;5277;48.722;8.736;2023-02-01T01:58:28;4.90;99.90
10459;DHT22;5277;48.722;8.736;2023-02-01T02:00:55;4.90;99.90
10459;DHT22;5277;48.722;8.736;2023-02-01T02:03:32;4.90;99.90
10459;DHT22;5277;48.722;8.736;2023-02-01T02:06:02;4.90;99.90
10459;DHT22;5277;48.722;8.736;2023-02-01T02:08:28;4.90;99.90
10459;DHT22;5277;48.722;8.736;2023-02-01T02:10:54;4.90;99.90
10459;DHT22;5277;48.722;8.736;2023-02-01T02:13:48;4.90;99.90
10459;DHT22;5277;48.722;8.736;2023-02-01T02:16:36;4.90;99.90
10459;DHT22;5277;48.722;8.736;2023-02-01T02:39:25;4.90;99.90
10459;DHT22;5277;48.722;8.736;2023-02-01T02:45:21;4.80;99.90
10459;DHT22;5277;48.722;8.736;2023-02-01T02:48:27;4.90;99.90
10459;DHT22;5277;48.722;8.736;2023-02-01T02:51:03;4.90;99.90
10459;DHT22;5277;48.722;8.736;2023-02-01T02:54:05;4.90;99.90
10459;DHT22;5277;48.722;8.736;2023-02-01T02:56:50;4.90;99.90
10459;DHT22;5277;48.722;8.736;2023-02-01T02:59:37;4.90;99.90
10459;DHT22;5277;48.722;8.736;2023-02-01T03:02:25;4.90;99.90
10459;DHT22;5277;48.722;8.736;2023-02-01T03:05:10;4.90;99.90
10459;DHT22;5277;48.722;8.736;2023-02-01T03:10:37;4.80;99.90
10459;DHT22;5277;48.722;8.736;2023-02-01T03:13:28;4.80;99.90
10459;DHT22;5277;48.722;8.736;2023-02-01T03:19:42;4.80;99.90
10459;DHT22;5277;48.722;8.736;2023-02-01T03:21:45;4.70;99.90
10459;DHT22;5277;48.722;8.736;2023-02-01T03:24:21;4.80;99.90
10459;DHT22;5277;48.722;8.736;2023-02-01T03:26:58;4.80;99.90
10459;DHT22;5277;48.722;8.736;2023-02-01T03:29:31;4.80;99.90
10459;DHT22;5277;48.722;8.736;2023-02-01T03:31:58;4.80;99.90
10459;DHT22;5277;48.722;8.736;2023-02-01T03:34:24;4.80;99.90
10459;DHT22;5277;48.722;8.736;2023-02-01T03:36:55;4.80;99.90
10459;DHT22;5277;48.722;8.736;2023-02-01T03:39:47;4.80;99.90
10459;DHT22;5277;48.722;8.736;2023-02-01T03:42:27;4.70;99.90
10459;DHT22;5277;48.722;8.736;2023-02-01T03:45:00;4.70;99.90
10459;DHT22;5277;48.722;8.736;2023-02-01T03:47:30;4.70;99.90
10459;DHT22;5277;48.722;8.736;2023-02-01T03:50:05;4.60;99.90
10459;DHT22;5277;48.722;8.736;2023-02-01T03:52:53;4.60;99.90
10459;DHT22;5277;48.722;8.736;2023-02-01T03:55:21;4.60;99.90
10459;DHT22;5277;48.722;8.736;2023-02-01T04:00:25;4.60;99.90
10459;DHT22;5277;48.722;8.736;2023-02-01T04:02:53;4.60;99.90
10459;DHT22;5277;48.722;8.736;2023-02-01T04:05:19;4.60;99.90
10459;DHT22;5277;48.722;8.736;2023-02-01T04:07:45;4.70;99.90
10459;DHT22;5277;48.722;8.736;2023-02-01T04:10:11;4.60;99.90
10459;DHT22;5277;48.722;8.736;2023-02-01T04:12:37;4.70;99.90
10459;DHT22;5277;48.722;8.736;2023-02-01T04:15:03;4.60;99.90
10459;DHT22;5277;48.722;8.736;2023-02-01T04:17:29;4.60;99.90
10459;DHT22;5277;48.722;8.736;2023-02-01T04:19:54;4.70;99.90
10459;DHT22;5277;48.722;8.736;2023-02-01T04:22:20;4.70;99.90
10459;DHT22;5277;48.722;8.736;2023-02-01T04:24:45;4.70;99.90
10459;DHT22;5277;48.722;8.736;2023-02-01T04:27:11;4.70;99.90
10459;DHT22;5277;48.722;8.736;2023-02-01T04:29:42;4.60;99.90
10459;DHT22;5277;48.722;8.736;2023-02-01T04:32:10;4.70;99.90
10459;DHT22;5277;48.722;8.736;2023-02-01T04:34:36;4.60;99.90
10459;DHT22;5277;48.722;8.736;2023-02-01T04:37:01;4.60;99.90
10459;DHT22;5277;48.722;8.736;2023-02-01T04:39:27;4.60;99.90
10459;DHT22;5277;48.722;8.736;2023-02-01T04:41:53;4.60;99.90
10459;DHT22;5277;48.722;8.736;2023-02-01T04:44:19;4.60;99.90
10459;DHT22;5277;48.722;8.736;2023-02-01T04:46:46;4.70;99.90
10459;DHT22;5277;48.722;8.736;2023-02-01T04:49:13;4.60;99.90
10459;DHT22;5277;48.722;8.736;2023-02-01T04:51:39;4.70;99.90
10459;DHT22;5277;48.722;8.736;2023-02-01T04:54:05;4.60;99.90
10459;DHT22;5277;48.722;8.736;2023-02-01T04:56:31;4.60;99.90
10459;DHT22;5277;48.722;8.736;2023-02-01T04:58:57;4.50;99.90
10459;DHT22;5277;48.722;8.736;2023-02-01T05:01:23;4.40;99.90
10459;DHT22;5277;48.722;8.736;2023-02-01T05:03:57;4.40;99.90
10459;DHT22;5277;48.722;8.736;2023-02-01T05:06:23;4.40;99.90
10459;DHT22;5277;48.722;8.736;2023-02-01T05:08:49;4.40;99.90
10459;DHT22;5277;48.722;8.736;2023-02-01T05:11:15;4.50;99.90
10459;DHT22;5277;48.722;8.736;2023-02-01T05:13:59;4.50;99.90
10459;DHT22;5277;48.722;8.736;2023-02-01T05:16:25;4.50;99.90
10459;DHT22;5277;48.722;8.736;2023-02-01T05:18:51;4.50;99.90
10459;DHT22;5277;48.722;8.736;2023-02-01T05:21:17;4.50;99.90
10459;DHT22;5277;48.722;8.736;2023-02-01T05:23:51;4.50;99.90
10459;DHT22;5277;48.722;8.736;2023-02-01T05:26:34;4.60;99.90
10459;DHT22;5277;48.722;8.736;2023-02-01T05:29:00;4.50;99.90
10459;DHT22;5277;48.722;8.736;2023-02-01T05:31:26;4.50;99.90
10459;DHT22;5277;48.722;8.736;2023-02-01T05:33:51;4.50;99.90
10459;DHT22;5277;48.722;8.736;2023-02-01T05:36:17;4.50;99.90
10459;DHT22;5277;48.722;8.736;2023-02-01T05:38:43;4.50;99.90
10459;DHT22;5277;48.722;8.736;2023-02-01T05:41:08;4.60;99.90
10459;DHT22;5277;48.722;8.736;2023-02-01T05:43:34;4.60;99.90
10459;DHT22;5277;48.722;8.736;2023-02-01T05:46:00;4.60;99.90
10459;DHT22;5277;48.722;8.736;2023-02-01T05:48:25;4.60;99.90
10459;DHT22;5277;48.722;8.736;2023-02-01T05:50:51;4.60;99.90
10459;DHT22;5277;48.722;8.736;2023-02-01T05:53:16;4.60;99.90
10459;DHT22;5277;48.722;8.736;2023-02-01T05:55:43;4.60;99.90
10459;DHT22;5277;48.722;8.736;2023-02-01T05:58:08;4.70;99.90
10459;DHT22;5277;48.722;8.736;2023-02-01T06:00:34;4.80;99.90
10459;DHT22;5277;48.722;8.736;2023-02-01T06:03:00;4.70;99.90
10459;DHT22;5277;48.722;8.736;2023-02-01T06:05:26;4.60;99.90
10459;DHT22;5277;48.722;8.736;2023-02-01T06:07:52;4.60;99.90
10459;DHT22;5277;48.722;8.736;2023-02-01T06:10:18;4.70;99.90
10459;DHT22;5277;48.722;8.736;2023-02-01T06:12:44;4.70;99.90
10459;DHT22;5277;48.722;8.736;2023-02-01T06:15:11;4.70;99.90
10459;DHT22;5277;48.722;8.736;2023-02-01T06:17:37;4.70;99.90
10459;DHT22;5277;48.722;8.736;2023-02-01T06:20:04;4.60;99.90
10459;DHT22;5277;48.722;8.736;2023-02-01T06:22:32;4.70;99.90
10459;DHT22;5277;48.722;8.736;2023-02-01T06:24:57;4.60;99.90
10459;DHT22;5277;48.722;8.736;2023-02-01T06:27:24;4.70;99.90
10459;DHT22;5277;48.722;8.736;2023-02-01T06:29:50;4.70;99.90
10459;DHT22;5277;48.722;8.736;2023-02-01T06:32:15;4.80;99.90
10459;DHT22;5277;48.722;8.736;2023-02-01T06:34:42;4.80;99.90
10459;DHT22;5277;48.722;8.736;2023-02-01T06:37:08;4.90;99.90
10459;DHT22;5277;48.722;8.736;2023-02-01T06:39:34;4.90;99.90
10459;DHT22;5277;48.722;8.736;2023-02-01T06:41:59;4.90;99.90
10459;DHT22;5277;48.722;8.736;2023-02-01T06:44:25;4.80;99.90
10459;DHT22;5277;48.722;8.736;2023-02-01T06:46:50;4.90;99.90
10459;DHT22;5277;48.722;8.736;2023-02-01T06:49:16;4.80;99.90
10459;DHT22;5277;48.722;8.736;2023-02-01T06:51:42;4.80;99.90
10459;DHT22;5277;48.722;8.736;2023-02-01T06:54:07;4.90;99.90
10459;DHT22;5277;48.722;8.736;2023-02-01T06:56:33;4.80;99.90
10459;DHT22;5277;48.722;8.736;2023-02-01T06:58:58;4.80;99.90
10459;DHT22;5277;48.722;8.736;2023-02-01T07:01:26;4.80;99.90
10459;DHT22;5277;48.722;8.736;2023-02-01T07:03:51;4.90;99.90
10459;DHT22;5277;48.722;8.736;2023-02-01T07:06:17;4.90;99.90
10459;DHT22;5277;48.722;8.736;2023-02-01T07:08:43;4.90;99.90
10459;DHT22;5277;48.722;8.736;2023-02-01T07:11:12;4.90;99.90
10459;DHT22;5277;48.722;8.736;2023-02-01T07:13:38;4.90;99.90
10459;DHT22;5277;48.722;8.736;2023-02-01T07:16:07;4.90;99.90
10459;DHT22;5277;48.722;8.736;2023-02-01T07:18:33;4.90;99.90
10459;DHT22;5277;48.722;8.736;2023-02-01T07:21:00;4.90;99.90
10459;DHT22;5277;48.722;8.736;2023-02-01T07:23:26;4.90;99.90
10459;DHT22;5277;48.722;8.736;2023-02-01T07:25:56;5.00;99.90
10459;DHT22;5277;48.722;8.736;2023-02-01T07:28:23;5.10;99.90
10459;DHT22;5277;48.722;8.736;2023-02-01T07:30:49;5.10;99.90
10459;DHT22;5277;48.722;8.736;2023-02-01T07:33:20;5.10;99.90
10459;DHT22;5277;48.722;8.736;2023-02-01T07:35:47;5.00;99.90
10459;DHT22;5277;48.722;8.736;2023-02-01T07:38:12;5.00;99.90
10459;DHT22;5277;48.722;8.736;2023-02-01T07:40:38;5.10;99.90
10459;DHT22;5277;48.722;8.736;2023-02-01T07:43:04;5.10;99.90
10459;DHT22;5277;48.722;8.736;2023-02-01T07:45:31;5.10;99.90
10459;DHT22;5277;48.722;8.736;2023-02-01T07:47:57;5.00;99.90
10459;DHT22;5277;48.722;8.736;2023-02-01T07:50:22;5.00;99.90
10459;DHT22;5277;48.722;8.736;2023-02-01T07:52:48;5.20;99.90
10459;DHT22;5277;48.722;8.736;2023-02-01T07:55:13;5.20;99.90
10459;DHT22;5277;48.722;8.736;2023-02-01T07:57:39;5.30;99.90
10459;DHT22;5277;48.722;8.736;2023-02-01T08:00:05;5.40;99.90
10459;DHT22;5277;48.722;8.736;2023-02-01T08:02:49;5.50;99.90
10459;DHT22;5277;48.722;8.736;2023-02-01T08:05:15;5.60;99.90
10459;DHT22;5277;48.722;8.736;2023-02-01T08:07:41;5.60;99.90
10459;DHT22;5277;48.722;8.736;2023-02-01T08:10:06;5.60;99.90
10459;DHT22;5277;48.722;8.736;2023-02-01T08:12:36;5.60;99.90
10459;DHT22;5277;48.722;8.736;2023-02-01T08:15:03;5.60;99.90
10459;DHT22;5277;48.722;8.736;2023-02-01T08:17:29;5.80;99.90
10459;DHT22;5277;48.722;8.736;2023-02-01T08:19:54;5.80;99.90
10459;DHT22;5277;48.722;8.736;2023-02-01T08:22:20;5.90;99.90
10459;DHT22;5277;48.722;8.736;2023-02-01T08:24:48;5.90;99.90
10459;DHT22;5277;48.722;8.736;2023-02-01T08:27:13;5.90;99.90
10459;DHT22;5277;48.722;8.736;2023-02-01T08:29:39;5.90;99.90
10459;DHT22;5277;48.722;8.736;2023-02-01T08:32:05;5.90;99.90
10459;DHT22;5277;48.722;8.736;2023-02-01T08:34:31;5.90;99.90
10459;DHT22;5277;48.722;8.736;2023-02-01T08:36:56;5.80;99.90
10459;DHT22;5277;48.722;8.736;2023-02-01T08:39:25;5.90;99.90
10459;DHT22;5277;48.722;8.736;2023-02-01T08:41:51;6.00;99.90
10459;DHT22;5277;48.722;8.736;2023-02-01T08:44:36;6.10;99.90
10459;DHT22;5277;48.722;8.736;2023-02-01T08:47:02;6.10;99.90
10459;DHT22;5277;48.722;8.736;2023-02-01T08:49:28;6.20;99.90
10459;DHT22;5277;48.722;8.736;2023-02-01T08:51:53;6.20;99.90
10459;DHT22;5277;48.722;8.736;2023-02-01T08:54:20;6.20;99.90
10459;DHT22;5277;48.722;8.736;2023-02-01T08:56:46;6.20;99.90
10459;DHT22;5277;48.722;8.736;2023-02-01T08:59:11;6.30;99.90
10459;DHT22;5277;48.722;8.736;2023-02-01T09:01:37;6.30;99.90
10459;DHT22;5277;48.722;8.736;2023-02-01T09:04:03;6.40;99.90
10459;DHT22;5277;48.722;8.736;2023-02-01T09:06:28;6.40;99.90
10459;DHT22;5277;48.722;8.736;2023-02-01T09:08:54;6.50;99.90
10459;DHT22;5277;48.722;8.736;2023-02-01T09:11:19;6.50;99.90
10459;DHT22;5277;48.722;8.736;2023-02-01T09:13:46;6.50;99.90
10459;DHT22;5277;48.722;8.736;2023-02-01T09:16:12;6.50;99.90
10459;DHT22;5277;48.722;8.736;2023-02-01T09:18:37;6.50;99.90
10459;DHT22;5277;48.722;8.736;2023-02-01T09:21:06;6.50;99.90
10459;DHT22;5277;48.722;8.736;2023-02-01T09:23:33;6.50;99.90
10459;DHT22;5277;48.722;8.736;2023-02-01T09:26:02;6.50;99.90
10459;DHT22;5277;48.722;8.736;2023-02-01T09:28:28;6.50;99.90
10459;DHT22;5277;48.722;8.736;2023-02-01T09:31:01;6.50;99.90
10459;DHT22;5277;48.722;8.736;2023-02-01T09:33:27;6.60;99.90
10459;DHT22;5277;48.722;8.736;2023-02-01T09:35:58;6.60;99.90
10459;DHT22;5277;48.722;8.736;2023-02-01T09:38:24;6.70;99.90
10459;DHT22;5277;48.722;8.736;2023-02-01T09:40:51;6.70;99.90
10459;DHT22;5277;48.722;8.736;2023-02-01T09:46:21;6.90;99.90
10459;DHT22;5277;48.722;8.736;2023-02-01T09:48:52;7.00;99.90
10459;DHT22;5277;48.722;8.736;2023-02-01T09:51:23;7.00;99.90
10459;DHT22;5277;48.722;8.736;2023-02-01T10:01:53;7.10;99.90
10459;DHT22;5277;48.722;8.736;2023-02-01T10:04:19;7.20;99.90
10459;DHT22;5277;48.722;8.736;2023-02-01T10:06:57;7.30;99.90
10459;DHT22;5277;48.722;8.736;2023-02-01T10:09:45;7.40;99.90
10459;DHT22;5277;48.722;8.736;2023-02-01T10:18:23;7.40;99.90
10459;DHT22;5277;48.722;8.736;2023-02-01T10:21:09;7.30;99.90
10459;DHT22;5277;48.722;8.736;2023-02-01T10:30:19;7.10;99.90
10459;DHT22;5277;48.722;8.736;2023-02-01T10:32:48;7.00;99.60
10459;DHT22;5277;48.722;8.736;2023-02-01T10:35:18;7.00;99.90
10459;DHT22;5277;48.722;8.736;2023-02-01T10:37:44;7.00;99.90
10459;DHT22;5277;48.722;8.736;2023-02-01T10:40:25;7.10;99.90
10459;DHT22;5277;48.722;8.736;2023-02-01T10:42:59;7.20;99.90
10459;DHT22;5277;48.722;8.736;2023-02-01T10:45:32;7.20;99.90
10459;DHT22;5277;48.722;8.736;2023-02-01T10:47:59;7.30;99.90
10459;DHT22;5277;48.722;8.736;2023-02-01T10:50:46;7.30;99.90
10459;DHT22;5277;48.722;8.736;2023-02-01T10:53:52;7.40;99.90
10459;DHT22;5277;48.722;8.736;2023-02-01T10:56:11;7.50;99.80
10459;DHT22;5277;48.722;8.736;2023-02-01T10:58:45;7.60;99.90
10459;DHT22;5277;48.722;8.736;2023-02-01T11:01:27;7.60;99.10
10459;DHT22;5277;48.722;8.736;2023-02-01T11:03:58;7.70;99.70
10459;DHT22;5277;48.722;8.736;2023-02-01T11:06:30;7.60;99.70
10459;DHT22;5277;48.722;8.736;2023-02-01T11:14:17;7.60;99.30
10459;DHT22;5277;48.722;8.736;2023-02-01T11:17:34;7.70;99.60
10459;DHT22;5277;48.722;8.736;2023-02-01T11:19:33;7.70;98.90
10459;DHT22;5277;48.722;8.736;2023-02-01T11:22:00;7.70;98.90
10459;DHT22;5277;48.722;8.736;2023-02-01T11:27:37;7.70;98.30
10459;DHT22;5277;48.722;8.736;2023-02-01T11:30:04;7.70;98.90
10459;DHT22;5277;48.722;8.736;2023-02-01T11:32:30;7.70;99.20
10459;DHT22;5277;48.722;8.736;2023-02-01T11:35:01;7.80;98.80
10459;DHT22;5277;48.722;8.736;2023-02-01T11:37:34;7.70;98.90
10459;DHT22;5277;48.722;8.736;2023-02-01T11:40:22;7.70;98.40
10459;DHT22;5277;48.722;8.736;2023-02-01T11:43:00;7.70;98.70
10459;DHT22;5277;48.722;8.736;2023-02-01T11:45:33;7.70;98.50
10459;DHT22;5277;48.722;8.736;2023-02-01T11:48:00;7.70;98.40
10459;DHT22;5277;48.722;8.736;2023-02-01T11:50:37;7.80;98.60
10459;DHT22;5277;48.722;8.736;2023-02-01T11:56:05;7.90;98.90
10459;DHT22;5277;48.722;8.736;2023-02-01T12:01:40;7.80;98.10
10459;DHT22;5277;48.722;8.736;2023-02-01T12:04:35;7.80;97.40
10459;DHT22;5277;48.722;8.736;2023-02-01T12:10:24;7.80;97.90
10459;DHT22;5277;48.722;8.736;2023-02-01T12:13:23;7.70;97.80
10459;DHT22;5277;48.722;8.736;2023-02-01T12:16:23;7.80;97.40
10459;DHT22;5277;48.722;8.736;2023-02-01T12:19:10;7.80;97.80
10459;DHT22;5277;48.722;8.736;2023-02-01T12:25:28;7.80;97.70
10459;DHT22;5277;48.722;8.736;2023-02-01T12:36:42;7.90;97.60
10459;DHT22;5277;48.722;8.736;2023-02-01T12:39:27;7.90;97.90
10459;DHT22;5277;48.722;8.736;2023-02-01T12:42:27;7.90;97.40
10459;DHT22;5277;48.722;8.736;2023-02-01T12:45:20;7.80;97.60
10459;DHT22;5277;48.722;8.736;2023-02-01T12:47:54;7.80;97.70
10459;DHT22;5277;48.722;8.736;2023-02-01T12:50:29;7.80;98.50
10459;DHT22;5277;48.722;8.736;2023-02-01T12:53:15;7.80;98.20
10459;DHT22;5277;48.722;8.736;2023-02-01T12:55:52;7.70;97.70
10459;DHT22;5277;48.722;8.736;2023-02-01T12:58:38;7.60;97.80
10459;DHT22;5277;48.722;8.736;2023-02-01T13:01:12;7.60;98.00
10459;DHT22;5277;48.722;8.736;2023-02-01T13:03:55;7.60;98.30
10459;DHT22;5277;48.722;8.736;2023-02-01T13:06:29;7.50;98.00
10459;DHT22;5277;48.722;8.736;2023-02-01T13:09:17;7.50;98.50
10459;DHT22;5277;48.722;8.736;2023-02-01T13:11:45;7.60;98.20
10459;DHT22;5277;48.722;8.736;2023-02-01T13:14:48;7.60;98.40
10459;DHT22;5277;48.722;8.736;2023-02-01T13:17:26;7.60;98.10
10459;DHT22;5277;48.722;8.736;2023-02-01T13:19:57;7.50;98.30
10459;DHT22;5277;48.722;8.736;2023-02-01T13:22:37;7.60;98.20
10459;DHT22;5277;48.722;8.736;2023-02-01T13:27:35;7.60;98.30
10459;DHT22;5277;48.722;8.736;2023-02-01T13:30:35;7.60;98.60
10459;DHT22;5277;48.722;8.736;2023-02-01T13:36:04;7.60;97.80
10459;DHT22;5277;48.722;8.736;2023-02-01T13:41:28;7.70;98.00
10459;DHT22;5277;48.722;8.736;2023-02-01T13:43:59;7.70;98.60
10459;DHT22;5277;48.722;8.736;2023-02-01T13:46:25;7.80;98.10
10459;DHT22;5277;48.722;8.736;2023-02-01T13:48:54;7.70;97.70
10459;DHT22;5277;48.722;8.736;2023-02-01T13:51:37;7.60;97.80
10459;DHT22;5277;48.722;8.736;2023-02-01T13:54:04;7.60;97.70
10459;DHT22;5277;48.722;8.736;2023-02-01T13:56:40;7.50;97.90
10459;DHT22;5277;48.722;8.736;2023-02-01T13:59:36;7.50;97.80
10459;DHT22;5277;48.722;8.736;2023-02-01T14:05:10;7.60;98.00
10459;DHT22;5277;48.722;8.736;2023-02-01T14:07:35;7.60;98.00
10459;DHT22;5277;48.722;8.736;2023-02-01T14:13:12;7.60;97.80
10459;DHT22;5277;48.722;8.736;2023-02-01T14:15:38;7.50;97.60
10459;DHT22;5277;48.722;8.736;2023-02-01T14:26:23;7.50;98.00
10459;DHT22;5277;48.722;8.736;2023-02-01T14:29:00;7.50;98.30
10459;DHT22;5277;48.722;8.736;2023-02-01T14:31:38;7.50;98.50
10459;DHT22;5277;48.722;8.736;2023-02-01T14:35:16;7.40;98.60
10459;DHT22;5277;48.722;8.736;2023-02-01T14:42:24;7.50;98.10
10459;DHT22;5277;48.722;8.736;2023-02-01T14:44:51;7.50;97.90
10459;DHT22;5277;48.722;8.736;2023-02-01T14:58:01;7.30;98.40
10459;DHT22;5277;48.722;8.736;2023-02-01T15:00:30;7.30;98.50
10459;DHT22;5277;48.722;8.736;2023-02-01T15:05:59;7.30;98.70
10459;DHT22;5277;48.722;8.736;2023-02-01T15:08:32;7.30;98.40
10459;DHT22;5277;48.722;8.736;2023-02-01T15:11:02;7.20;98.30
10459;DHT22;5277;48.722;8.736;2023-02-01T15:13:29;7.10;98.60
10459;DHT22;5277;48.722;8.736;2023-02-01T15:16:09;7.10;98.60
10459;DHT22;5277;48.722;8.736;2023-02-01T15:18:36;7.10;98.20
10459;DHT22;5277;48.722;8.736;2023-02-01T15:21:03;7.10;98.60
10459;DHT22;5277;48.722;8.736;2023-02-01T15:23:32;7.20;98.70
10459;DHT22;5277;48.722;8.736;2023-02-01T15:25:58;7.30;98.70
10459;DHT22;5277;48.722;8.736;2023-02-01T15:28:25;7.30;98.30
10459;DHT22;5277;48.722;8.736;2023-02-01T15:30:57;7.30;98.20
10459;DHT22;5277;48.722;8.736;2023-02-01T15:33:23;7.20;97.60
10459;DHT22;5277;48.722;8.736;2023-02-01T15:35:51;7.10;97.70
10459;DHT22;5277;48.722;8.736;2023-02-01T15:41:08;7.10;97.70
10459;DHT22;5277;48.722;8.736;2023-02-01T15:46:22;7.10;97.60
10459;DHT22;5277;48.722;8.736;2023-02-01T15:48:50;7.00;98.20
10459;DHT22;5277;48.722;8.736;2023-02-01T15:51:19;7.00;98.20
10459;DHT22;5277;48.722;8.736;2023-02-01T15:54:13;6.90;98.60
10459;DHT22;5277;48.722;8.736;2023-02-01T15:56:36;6.80;98.50
10459;DHT22;5277;48.722;8.736;2023-02-01T15:59:05;6.80;98.40
10459;DHT22;5277;48.722;8.736;2023-02-01T16:01:37;6.80;98.80
10459;DHT22;5277;48.722;8.736;2023-02-01T16:04:16;6.80;98.80
10459;DHT22;5277;48.722;8.736;2023-02-01T16:06:48;6.80;98.50
10459;DHT22;5277;48.722;8.736;2023-02-01T16:09:15;6.70;98.40
10459;DHT22;5277;48.722;8.736;2023-02-01T16:12:02;6.70;99.10
10459;DHT22;5277;48.722;8.736;2023-02-01T16:14:29;6.60;98.40
10459;DHT22;5277;48.722;8.736;2023-02-01T16:16:57;6.50;98.30
10459;DHT22;5277;48.722;8.736;2023-02-01T16:19:23;6.50;98.40
10459;DHT22;5277;48.722;8.736;2023-02-01T16:21:55;6.50;98.30
10459;DHT22;5277;48.722;8.736;2023-02-01T16:24:25;6.50;98.30
10459;DHT22;5277;48.722;8.736;2023-02-01T16:26:51;6.40;98.50
10459;DHT22;5277;48.722;8.736;2023-02-01T16:29:17;6.40;99.00
10459;DHT22;5277;48.722;8.736;2023-02-01T16:31:42;6.40;98.90
10459;DHT22;5277;48.722;8.736;2023-02-01T16:34:14;6.20;99.20
10459;DHT22;5277;48.722;8.736;2023-02-01T16:36:44;6.30;99.50
10459;DHT22;5277;48.722;8.736;2023-02-01T16:39:17;6.20;99.70
10459;DHT22;5277;48.722;8.736;2023-02-01T16:41:43;6.20;99.70
10459;DHT22;5277;48.722;8.736;2023-02-01T16:44:10;6.10;99.60
10459;DHT22;5277;48.722;8.736;2023-02-01T16:46:41;6.00;99.70
10459;DHT22;5277;48.722;8.736;2023-02-01T16:51:42;6.10;99.20
10459;DHT22;5277;48.722;8.736;2023-02-01T16:54:08;6.00;99.80
10459;DHT22;5277;48.722;8.736;2023-02-01T16:56:34;6.00;99.70
10459;DHT22;5277;48.722;8.736;2023-02-01T16:59:01;6.00;99.90
10459;DHT22;5277;48.722;8.736;2023-02-01T17:01:27;5.90;99.80
10459;DHT22;5277;48.722;8.736;2023-02-01T17:03:52;5.90;99.90
10459;DHT22;5277;48.722;8.736;2023-02-01T17:06:20;5.80;99.90
10459;DHT22;5277;48.722;8.736;2023-02-01T17:08:52;5.80;99.90
10459;DHT22;5277;48.722;8.736;2023-02-01T17:11:19;5.80;99.90
10459;DHT22;5277;48.722;8.736;2023-02-01T17:13:44;5.80;99.90
10459;DHT22;5277;48.722;8.736;2023-02-01T17:16:30;5.70;99.90
10459;DHT22;5277;48.722;8.736;2023-02-01T17:18:57;5.70;99.90
10459;DHT22;5277;48.722;8.736;2023-02-01T17:21:25;5.70;99.90
10459;DHT22;5277;48.722;8.736;2023-02-01T17:23:51;5.70;99.90
10459;DHT22;5277;48.722;8.736;2023-02-01T17:26:18;5.70;99.90
10459;DHT22;5277;48.722;8.736;2023-02-01T17:28:43;5.70;99.90
10459;DHT22;5277;48.722;8.736;2023-02-01T17:31:12;5.80;99.90
10459;DHT22;5277;48.722;8.736;2023-02-01T17:33:39;5.80;99.90
10459;DHT22;5277;48.722;8.736;2023-02-01T17:36:05;5.80;99.90
10459;DHT22;5277;48.722;8.736;2023-02-01T17:38:32;5.80;99.90
10459;DHT22;5277;48.722;8.736;2023-02-01T17:40:58;5.90;99.90
10459;DHT22;5277;48.722;8.736;2023-02-01T17:43:25;5.90;99.90
10459;DHT22;5277;48.722;8.736;2023-02-01T17:45:56;5.80;99.90
10459;DHT22;5277;48.722;8.736;2023-02-01T17:48:23;5.80;99.90
10459;DHT22;5277;48.722;8.736;2023-02-01T17:50:49;6.00;99.90
10459;DHT22;5277;48.722;8.736;2023-02-01T17:53:19;5.90;99.90
10459;DHT22;5277;48.722;8.736;2023-02-01T17:55:49;5.80;99.90
10459;DHT22;5277;48.722;8.736;2023-02-01T17:58:15;5.90;99.90
10459;DHT22;5277;48.722;8.736;2023-02-01T18:00:42;5.90;99.90
10459;DHT22;5277;48.722;8.736;2023-02-01T18:03:34;5.90;99.90
10459;DHT22;5277;48.722;8.736;2023-02-01T18:06:01;5.90;99.90
10459;DHT22;5277;48.722;8.736;2023-02-01T18:08:29;5.90;99.90
10459;DHT22;5277;48.722;8.736;2023-02-01T18:10:57;5.90;99.90
10459;DHT22;5277;48.722;8.736;2023-02-01T18:13:30;5.90;99.80
10459;DHT22;5277;48.722;8.736;2023-02-01T18:15:56;5.90;99.90
10459;DHT22;5277;48.722;8.736;2023-02-01T18:18:24;5.90;99.90
10459;DHT22;5277;48.722;8.736;2023-02-01T18:20:50;5.90;99.90
10459;DHT22;5277;48.722;8.736;2023-02-01T18:23:19;5.90;99.90
10459;DHT22;5277;48.722;8.736;2023-02-01T18:25:51;5.90;99.90
10459;DHT22;5277;48.722;8.736;2023-02-01T18:28:18;5.90;99.90
10459;DHT22;5277;48.722;8.736;2023-02-01T18:30:46;5.90;99.90
10459;DHT22;5277;48.722;8.736;2023-02-01T18:33:14;5.80;99.90
10459;DHT22;5277;48.722;8.736;2023-02-01T18:35:41;5.80;99.90
10459;DHT22;5277;48.722;8.736;2023-02-01T18:38:07;5.80;99.90